Xiamen Gaoqi International Airport

Airport
ICAO code: 
ZSAM
IATA Code: 
XMN
Summary
ICAO Region: 
APAC
Territory: 
Location: 
Huli, Fujian
Serving: 
Xiamen
Elevation: 
59 ft
Coordinates: 
Aerial View: 
24° 32' 20.654" N, 118° 8' 3.725" E
Metar
Observation
ZSAM 040300Z 04007MPS CAVOK 19/07 Q1024 NOSIG
Station
Xiamen
Date/Time
2021-12-04 03:00:00
Wind direction
40°
Lowest cloud amount
clouds and visibility OK
Temperature
19°C
Dew point
7°C
Humidity
45%
QNH
1024 hPa
Weather condition
n/a

Description

Xiamen Gaoqi International Airport is the airport serving the city of Xiamen in Fujian Province, China. The airport is located on the north side of Xiamen Island.

Climatology

Humid subtropical climate (Köppen climate classification Cfa.) Hot muggy summers with frequent thunderstorms. Winters are mild and precipitation during this season comes from mid-latitude cyclones. This climate type is quite common on the east coasts of continents.

Runways

Designator Length Width Surface Rops
5/23 3400 45 ASP Yes/Yes
Airport map: 
Aerial View: 

SKYbrary Partners:

Safety knowledge contributed by: